Time;durP1;ratioP1;P1;durP2;ratioP2;P2;SDS_P1;SDS_P2;PMS_P1;PMS_P2;Temp;Humidity;BMP_temperature;BMP_pressure;BME280_temperature;BME280_humidity;BME280_pressure;Samples;Min_cycle;Max_cycle;Signal;HPM_P1;HPM_P2
2023/07/01 00:01:00;;;;;;;2.80;1.20;;;15.50;99.90;;;;;;5051984;28;20132;-74
2023/07/01 00:03:30;;;;;;;6.13;1.85;;;15.50;99.90;;;;;;5052374;28;20025;-74
2023/07/01 00:06:00;;;;;;;5.35;1.20;;;15.50;99.90;;;;;;5052246;28;20039;-74
2023/07/01 00:08:26;;;;;;;7.63;1.75;;;15.50;99.90;;;;;;5051222;28;20060;-74
2023/07/01 00:10:52;;;;;;;6.75;1.60;;;15.50;99.90;;;;;;5052452;28;20076;-75
2023/07/01 00:13:18;;;;;;;4.63;1.85;;;15.50;99.90;;;;;;5052492;28;20025;-73
2023/07/01 00:15:44;;;;;;;6.72;1.63;;;15.50;99.90;;;;;;5052475;28;20131;-74
2023/07/01 00:18:09;;;;;;;4.65;1.85;;;15.50;99.90;;;;;;5050596;28;20057;-74
2023/07/01 00:20:35;;;;;;;3.95;1.67;;;15.40;99.90;;;;;;5052136;28;20031;-73
2023/07/01 00:23:01;;;;;;;4.32;1.70;;;15.40;99.90;;;;;;5051613;28;20025;-73
2023/07/01 00:25:26;;;;;;;7.53;1.80;;;15.40;99.90;;;;;;5052335;28;20327;-73
2023/07/01 00:27:52;;;;;;;5.10;1.65;;;15.40;99.90;;;;;;5051726;28;20048;-75
2023/07/01 00:30:18;;;;;;;4.18;1.73;;;15.40;99.90;;;;;;5051598;28;20047;-74
2023/07/01 00:32:43;;;;;;;6.43;1.75;;;15.30;99.90;;;;;;5052236;28;20148;-74
2023/07/01 00:35:09;;;;;;;8.95;2.25;;;15.30;99.90;;;;;;5051495;28;20087;-74
2023/07/01 00:37:35;;;;;;;5.40;1.67;;;15.30;99.90;;;;;;5052125;28;20085;-73
2023/07/01 00:40:00;;;;;;;6.72;2.20;;;15.30;99.90;;;;;;5051448;28;20523;-74
2023/07/01 00:42:26;;;;;;;5.38;2.10;;;15.40;99.90;;;;;;5050329;28;20115;-73
2023/07/01 00:44:52;;;;;;;9.18;1.75;;;15.30;99.90;;;;;;5051702;28;20315;-74
2023/07/01 00:47:18;;;;;;;6.85;2.08;;;15.30;99.90;;;;;;5051531;28;20128;-73
2023/07/01 00:49:45;;;;;;;6.50;1.55;;;15.30;99.90;;;;;;5051814;28;20040;-74
2023/07/01 00:52:11;;;;;;;7.03;1.52;;;15.30;99.90;;;;;;5050725;28;20108;-73
2023/07/01 00:54:37;;;;;;;5.13;1.67;;;15.30;99.90;;;;;;5051868;28;20504;-73
2023/07/01 00:57:04;;;;;;;5.07;1.85;;;15.30;99.90;;;;;;5050986;28;20086;-73
2023/07/01 00:59:33;;;;;;;4.97;1.60;;;15.30;99.90;;;;;;5051492;28;20040;-74
2023/07/01 01:02:19;;;;;;;6.35;1.88;;;15.30;99.90;;;;;;5050740;28;20066;-74
2023/07/01 01:05:01;;;;;;;5.72;1.58;;;15.30;99.90;;;;;;5051237;28;20021;-74
2023/07/01 01:07:42;;;;;;;;;;;15.30;99.90;;;;;;5051688;28;20060;-73
2023/07/01 01:10:13;;;;;;;6.38;1.30;;;15.20;99.90;;;;;;5050651;28;20271;-74
2023/07/01 01:12:40;;;;;;;4.15;1.20;;;15.20;99.90;;;;;;5051408;28;20092;-74
2023/07/01 01:15:08;;;;;;;3.63;1.17;;;15.30;99.90;;;;;;5050351;28;20103;-74
2023/07/01 01:17:38;;;;;;;3.10;1.15;;;15.20;99.90;;;;;;5051579;28;20032;-74
2023/07/01 01:20:13;;;;;;;5.97;1.23;;;15.20;99.90;;;;;;5050708;28;20110;-74
2023/07/01 01:22:53;;;;;;;6.50;1.50;;;15.20;99.90;;;;;;5050659;28;20106;-73
2023/07/01 01:25:37;;;;;;;3.95;1.42;;;15.20;99.90;;;;;;5050732;28;20035;-73
2023/07/01 01:28:03;;;;;;;6.07;1.63;;;15.20;99.90;;;;;;5050521;28;20064;-74
2023/07/01 01:30:33;;;;;;;2.22;0.90;;;15.20;99.90;;;;;;5051225;28;20029;-73
2023/07/01 01:33:00;;;;;;;4.10;1.17;;;15.20;99.90;;;;;;5050858;28;20510;-74
2023/07/01 01:35:25;;;;;;;5.03;1.73;;;15.20;99.90;;;;;;5050874;28;20025;-73
2023/07/01 01:37:58;;;;;;;7.90;1.50;;;15.20;99.90;;;;;;5051321;28;20342;-74
2023/07/01 01:40:35;;;;;;;5.20;1.40;;;15.20;99.90;;;;;;5050686;28;20532;-74
2023/07/01 01:43:44;;;;;;;7.05;1.25;;;15.10;99.90;;;;;;5050585;28;20391;-74
2023/07/01 01:46:11;;;;;;;2.92;1.10;;;15.10;99.90;;;;;;5042261;28;20068;-74
2023/07/01 01:48:38;;;;;;;3.97;1.23;;;15.10;99.90;;;;;;5050455;28;20029;-73
2023/07/01 01:51:05;;;;;;;4.05;1.05;;;15.10;99.90;;;;;;5049997;28;20028;-74
2023/07/01 01:53:32;;;;;;;5.60;1.02;;;15.00;99.90;;;;;;5050447;28;20525;-74
2023/07/01 01:55:58;;;;;;;4.18;0.90;;;15.00;99.90;;;;;;5050485;28;20067;-75
2023/07/01 01:58:24;;;;;;;4.28;1.23;;;15.00;99.90;;;;;;5050391;28;20032;-73
2023/07/01 02:00:50;;;;;;;4.97;0.95;;;15.00;99.90;;;;;;5050696;28;20029;-74
2023/07/01 02:03:16;;;;;;;3.42;0.80;;;15.00;99.90;;;;;;5050108;28;20021;-74
2023/07/01 02:05:42;;;;;;;3.70;1.00;;;15.00;99.90;;;;;;5050662;28;20021;-73
2023/07/01 02:08:07;;;;;;;3.15;1.00;;;15.00;99.90;;;;;;5049622;28;20051;-74
2023/07/01 02:10:33;;;;;;;3.55;1.20;;;15.10;99.90;;;;;;5050427;28;20021;-73
2023/07/01 02:12:59;;;;;;;4.20;1.10;;;15.00;99.90;;;;;;5050314;28;20140;-75
2023/07/01 02:15:25;;;;;;;3.03;0.80;;;15.10;99.90;;;;;;5050167;28;20045;-73
2023/07/01 02:17:52;;;;;;;4.93;1.30;;;15.00;99.90;;;;;;5050681;28;20092;-73
2023/07/01 02:20:18;;;;;;;4.78;1.20;;;15.00;99.90;;;;;;5048447;28;20033;-73
2023/07/01 02:22:44;;;;;;;3.80;1.17;;;15.00;99.90;;;;;;5049950;28;20116;-73
2023/07/01 02:25:10;;;;;;;4.38;1.40;;;15.00;99.90;;;;;;5050270;28;20032;-74
2023/07/01 02:27:36;;;;;;;3.90;1.25;;;15.00;99.90;;;;;;5049993;28;20029;-74
2023/07/01 02:30:02;;;;;;;1.85;0.90;;;14.90;99.90;;;;;;5050149;28;20053;-75
2023/07/01 02:32:29;;;;;;;3.38;1.08;;;14.80;99.90;;;;;;5050493;28;20036;-73
2023/07/01 02:34:55;;;;;;;5.00;1.00;;;14.80;99.90;;;;;;5050395;28;20037;-73
2023/07/01 02:37:21;;;;;;;7.85;0.90;;;14.80;99.90;;;;;;5049809;28;20626;-73
2023/07/01 02:39:47;;;;;;;3.72;1.10;;;14.80;99.90;;;;;;5050218;28;20040;-73
2023/07/01 02:42:16;;;;;;;4.25;1.20;;;14.80;99.90;;;;;;5049611;28;20102;-73
2023/07/01 02:44:42;;;;;;;3.00;1.38;;;14.80;99.90;;;;;;5050307;28;20108;-74
2023/07/01 02:47:08;;;;;;;3.10;0.90;;;14.80;99.90;;;;;;5049580;28;20021;-74
2023/07/01 02:49:34;;;;;;;1.55;0.93;;;14.80;99.90;;;;;;5050111;28;20091;-73
2023/07/01 02:51:59;;;;;;;3.58;1.00;;;14.70;99.90;;;;;;5050473;28;20041;-74
2023/07/01 02:54:25;;;;;;;3.50;1.00;;;14.60;99.90;;;;;;5049975;28;20057;-73
2023/07/01 02:56:51;;;;;;;4.32;1.20;;;14.60;99.90;;;;;;5050450;28;20056;-73
2023/07/01 02:59:16;;;;;;;2.25;0.90;;;14.70;99.90;;;;;;5049751;28;20025;-73
2023/07/01 03:01:44;;;;;;;9.88;1.27;;;14.60;99.90;;;;;;5050283;28;20059;-73
2023/07/01 03:04:12;;;;;;;5.53;1.13;;;14.60;99.90;;;;;;5049716;28;20029;-74
2023/07/01 03:06:37;;;;;;;3.00;1.05;;;14.60;99.90;;;;;;5049988;28;20173;-74
2023/07/01 03:09:07;;;;;;;4.80;1.17;;;14.60;99.90;;;;;;5048368;28;20173;-74
2023/07/01 03:11:36;;;;;;;3.67;0.95;;;14.60;99.90;;;;;;5050022;28;20471;-73
2023/07/01 03:14:02;;;;;;;1.88;0.80;;;14.60;99.90;;;;;;5050056;28;20025;-73
2023/07/01 03:16:30;;;;;;;3.15;1.02;;;14.60;99.90;;;;;;5052262;28;20059;-73
2023/07/01 03:18:58;;;;;;;3.40;1.00;;;14.60;99.90;;;;;;5053608;28;20028;-73
2023/07/01 03:21:24;;;;;;;2.78;1.05;;;14.60;99.90;;;;;;5052897;28;20037;-73
2023/07/01 03:23:50;;;;;;;3.55;1.17;;;14.60;99.90;;;;;;5053371;28;20308;-73
2023/07/01 03:26:16;;;;;;;2.10;0.90;;;14.50;99.90;;;;;;5052704;28;20085;-73
2023/07/01 03:28:42;;;;;;;3.08;0.85;;;14.60;99.90;;;;;;5053336;28;20048;-74
2023/07/01 03:31:08;;;;;;;1.48;1.25;;;14.50;99.90;;;;;;5053188;28;20033;-74
2023/07/01 03:33:35;;;;;;;4.25;1.10;;;14.50;99.90;;;;;;5053015;28;20056;-74
2023/07/01 03:36:01;;;;;;;2.75;1.00;;;14.50;99.90;;;;;;5053069;28;20355;-73
2023/07/01 03:38:27;;;;;;;3.28;1.20;;;14.50;99.90;;;;;;5052954;28;20033;-73
2023/07/01 03:40:53;;;;;;;7.07;1.10;;;14.40;99.90;;;;;;5052880;28;20366;-73
2023/07/01 03:43:18;;;;;;;4.55;0.90;;;14.40;99.90;;;;;;5052325;28;20037;-73
2023/07/01 03:45:44;;;;;;;4.15;1.00;;;14.40;99.90;;;;;;5053295;28;20029;-73
2023/07/01 03:48:10;;;;;;;4.70;0.90;;;14.40;99.90;;;;;;5052588;28;20103;-73
2023/07/01 03:50:35;;;;;;;3.67;1.10;;;14.40;99.90;;;;;;5053194;28;20091;-72
2023/07/01 03:53:01;;;;;;;2.25;0.93;;;14.40;99.90;;;;;;5052945;28;20374;-73
2023/07/01 03:55:27;;;;;;;3.85;0.90;;;14.40;99.90;;;;;;5052498;28;20114;-73
2023/07/01 03:57:52;;;;;;;4.22;1.00;;;14.40;99.90;;;;;;5052967;28;20454;-73
2023/07/01 04:00:18;;;;;;;3.95;1.05;;;14.30;99.90;;;;;;5052148;28;20411;-74
2023/07/01 04:02:48;;;;;;;1.73;0.77;;;14.30;99.90;;;;;;5052846;28;20029;-73
2023/07/01 04:05:15;;;;;;;2.28;0.77;;;14.40;99.90;;;;;;5052224;28;20082;-73
2023/07/01 04:07:41;;;;;;;3.38;1.02;;;14.40;99.90;;;;;;5052626;28;20043;-73
2023/07/01 04:10:08;;;;;;;3.45;1.15;;;14.40;99.90;;;;;;5052291;28;20047;-75
2023/07/01 04:12:34;;;;;;;2.05;0.70;;;14.40;99.90;;;;;;5052339;28;20040;-73
2023/07/01 04:15:02;;;;;;;3.35;1.00;;;14.40;99.90;;;;;;5052409;28;20383;-73
2023/07/01 04:17:29;;;;;;;3.38;0.93;;;14.40;99.90;;;;;;5051919;28;20202;-73
2023/07/01 04:19:56;;;;;;;4.82;1.05;;;14.40;99.90;;;;;;5052516;28;20132;-73
2023/07/01 04:22:25;;;;;;;4.75;1.00;;;14.40;99.90;;;;;;5051867;28;20037;-73
2023/07/01 04:24:50;;;;;;;3.58;0.88;;;14.40;99.90;;;;;;5051366;28;20075;-73
2023/07/01 04:27:16;;;;;;;1.20;0.70;;;14.50;99.90;;;;;;5050823;28;20079;-73
2023/07/01 04:29:42;;;;;;;3.28;0.95;;;14.50;99.90;;;;;;5052555;28;20049;-73
2023/07/01 04:32:08;;;;;;;3.15;1.00;;;14.40;99.90;;;;;;5052074;28;20386;-74
2023/07/01 04:34:33;;;;;;;2.78;1.00;;;14.50;99.90;;;;;;5051770;28;20025;-73
2023/07/01 04:36:59;;;;;;;2.72;1.00;;;14.50;99.90;;;;;;5052303;28;20115;-73
2023/07/01 04:39:25;;;;;;;3.78;0.90;;;14.40;99.90;;;;;;5051785;28;20047;-73
2023/07/01 04:41:50;;;;;;;4.25;0.98;;;14.50;99.90;;;;;;5052020;28;20461;-73
2023/07/01 04:44:16;;;;;;;4.07;0.93;;;14.50;99.90;;;;;;5051505;28;20029;-73
2023/07/01 04:46:42;;;;;;;6.72;1.52;;;14.50;99.90;;;;;;5052057;28;20029;-73
2023/07/01 04:49:10;;;;;;;1.95;0.80;;;14.50;99.90;;;;;;5052047;28;20459;-73
2023/07/01 04:51:39;;;;;;;2.25;0.93;;;14.50;99.90;;;;;;5050957;28;20185;-72
2023/07/01 04:54:05;;;;;;;4.80;1.02;;;14.60;99.90;;;;;;5052126;28;20017;-73
2023/07/01 04:56:31;;;;;;;2.55;0.85;;;14.60;99.90;;;;;;5051857;28;20098;-73
2023/07/01 04:58:57;;;;;;;3.08;1.40;;;14.60;99.90;;;;;;5051837;28;20025;-73
2023/07/01 05:01:23;;;;;;;5.45;1.10;;;14.60;99.90;;;;;;5050822;28;20029;-73
2023/07/01 05:03:48;;;;;;;2.85;0.90;;;14.60;99.90;;;;;;5051849;28;20108;-73
2023/07/01 05:06:14;;;;;;;4.05;0.73;;;14.70;99.90;;;;;;5051538;28;20021;-74
2023/07/01 05:08:40;;;;;;;3.35;1.10;;;14.70;99.90;;;;;;5052301;28;20036;-73
2023/07/01 05:11:05;;;;;;;3.20;1.00;;;14.70;99.90;;;;;;5052203;28;20036;-73
2023/07/01 05:13:31;;;;;;;4.55;1.67;;;14.80;99.90;;;;;;5051173;28;20028;-73
2023/07/01 05:15:57;;;;;;;2.55;0.90;;;14.70;99.90;;;;;;5051892;28;20029;-73
2023/07/01 05:18:22;;;;;;;5.68;1.30;;;14.70;99.90;;;;;;5051212;28;20035;-73
2023/07/01 05:20:48;;;;;;;3.03;1.13;;;14.80;99.90;;;;;;5051433;28;20032;-73
2023/07/01 05:23:14;;;;;;;3.80;1.17;;;14.80;99.90;;;;;;5050342;28;20028;-74
2023/07/01 05:25:40;;;;;;;4.15;1.15;;;14.90;99.90;;;;;;5051442;28;20104;-73
2023/07/01 05:28:06;;;;;;;2.47;1.20;;;14.80;99.90;;;;;;5051056;28;20119;-74
2023/07/01 05:30:31;;;;;;;1.67;1.02;;;14.80;99.90;;;;;;5050789;28;20723;-73
2023/07/01 05:32:57;;;;;;;2.97;1.10;;;14.80;99.90;;;;;;5050964;28;20039;-73
2023/07/01 05:35:23;;;;;;;5.63;1.20;;;14.80;99.90;;;;;;5050249;28;20382;-73
2023/07/01 05:37:49;;;;;;;4.03;0.90;;;14.90;99.90;;;;;;5050870;28;20037;-73
2023/07/01 05:40:14;;;;;;;2.28;1.20;;;14.90;99.90;;;;;;5050666;28;20104;-75
2023/07/01 05:42:40;;;;;;;1.55;1.00;;;14.90;99.90;;;;;;5050368;28;20381;-74
2023/07/01 05:45:06;;;;;;;2.92;1.10;;;14.90;99.90;;;;;;5050955;28;20064;-73
2023/07/01 05:47:32;;;;;;;4.18;1.13;;;14.90;99.90;;;;;;5048819;28;20840;-73
2023/07/01 05:49:58;;;;;;;6.18;1.30;;;14.70;99.90;;;;;;5050858;28;20028;-72
2023/07/01 05:52:24;;;;;;;3.58;1.17;;;14.80;99.90;;;;;;5050749;28;20433;-73
2023/07/01 05:54:49;;;;;;;2.83;1.33;;;14.80;99.90;;;;;;5050365;28;20036;-74
2023/07/01 05:57:15;;;;;;;2.42;1.30;;;14.70;99.90;;;;;;5050327;28;20032;-75
2023/07/01 05:59:41;;;;;;;2.53;1.42;;;14.70;99.90;;;;;;5050551;28;20055;-73
2023/07/01 06:02:07;;;;;;;5.63;1.52;;;14.70;99.90;;;;;;5050465;28;20079;-73
2023/07/01 06:04:33;;;;;;;2.75;1.10;;;14.70;99.90;;;;;;5049925;28;20060;-73
2023/07/01 06:06:59;;;;;;;1.27;0.75;;;14.70;99.90;;;;;;5050673;28;20040;-73
2023/07/01 06:09:25;;;;;;;1.40;0.80;;;14.80;99.90;;;;;;5050327;28;20133;-73
2023/07/01 06:11:52;;;;;;;3.33;1.10;;;14.80;99.90;;;;;;5050496;28;20029;-73
2023/07/01 06:14:18;;;;;;;3.08;1.10;;;14.80;99.90;;;;;;5049594;28;20040;-74
2023/07/01 06:16:44;;;;;;;2.55;1.00;;;14.80;99.90;;;;;;5050906;28;20439;-73
2023/07/01 06:19:10;;;;;;;2.60;1.00;;;14.80;99.90;;;;;;5050705;28;20040;-73
2023/07/01 06:21:36;;;;;;;2.90;1.25;;;14.80;99.90;;;;;;5049731;28;20029;-73
2023/07/01 06:24:01;;;;;;;1.55;0.80;;;14.90;99.90;;;;;;5050411;28;20413;-73
2023/07/01 06:26:27;;;;;;;4.40;1.67;;;14.90;99.90;;;;;;5050247;28;20036;-73
2023/07/01 06:28:53;;;;;;;2.92;1.10;;;15.00;99.90;;;;;;5050281;28;20400;-73
2023/07/01 06:31:18;;;;;;;2.67;1.30;;;15.10;99.90;;;;;;5050266;28;20465;-74
2023/07/01 06:33:45;;;;;;;3.15;1.00;;;15.20;99.90;;;;;;5049991;28;20024;-73
2023/07/01 06:36:12;;;;;;;1.08;0.88;;;15.20;99.90;;;;;;5049967;28;20090;-73
2023/07/01 06:38:40;;;;;;;6.18;1.23;;;15.30;99.90;;;;;;5049590;28;20033;-73
2023/07/01 06:41:06;;;;;;;4.63;1.00;;;15.40;99.90;;;;;;5050025;28;20033;-73
2023/07/01 06:43:32;;;;;;;2.20;0.95;;;15.50;99.90;;;;;;5049653;28;20032;-73
2023/07/01 06:45:59;;;;;;;2.78;0.82;;;15.50;99.90;;;;;;5050127;28;20040;-72
2023/07/01 06:48:25;;;;;;;1.45;1.10;;;15.50;99.90;;;;;;5049751;28;20052;-73
2023/07/01 06:50:50;;;;;;;2.13;1.20;;;15.60;99.90;;;;;;5051845;28;20466;-73
2023/07/01 06:53:16;;;;;;;2.25;1.17;;;15.60;99.90;;;;;;5054035;28;20033;-73
2023/07/01 06:55:42;;;;;;;4.55;1.10;;;15.60;99.90;;;;;;5053505;28;20442;-73
2023/07/01 06:58:08;;;;;;;2.05;1.13;;;15.50;99.90;;;;;;5053565;28;20033;-73
2023/07/01 07:00:33;;;;;;;2.10;1.00;;;15.60;99.90;;;;;;5053366;28;20021;-73
2023/07/01 07:03:00;;;;;;;2.85;1.65;;;15.70;99.90;;;;;;5053671;28;20394;-73
2023/07/01 07:05:26;;;;;;;3.55;1.08;;;15.80;99.90;;;;;;5053293;28;20523;-73
2023/07/01 07:07:52;;;;;;;1.88;1.38;;;15.80;99.90;;;;;;5054002;28;20112;-73
2023/07/01 07:10:18;;;;;;;3.25;1.58;;;16.00;99.90;;;;;;5053491;28;20470;-74
2023/07/01 07:12:44;;;;;;;2.63;1.30;;;16.10;99.90;;;;;;5051947;28;20037;-73
2023/07/01 07:15:10;;;;;;;2.63;1.63;;;16.30;99.90;;;;;;5052155;28;20032;-73
2023/07/01 07:17:36;;;;;;;3.47;1.95;;;16.40;99.90;;;;;;5053639;28;20021;-73
2023/07/01 07:20:01;;;;;;;3.90;1.88;;;16.40;99.90;;;;;;5053331;28;20025;-73
2023/07/01 07:22:27;;;;;;;3.55;2.00;;;16.40;99.90;;;;;;5052975;28;20079;-74
2023/07/01 07:24:53;;;;;;;2.80;2.10;;;16.40;99.90;;;;;;5052975;28;20033;-74
2023/07/01 07:27:19;;;;;;;6.25;2.80;;;16.40;99.90;;;;;;5053291;28;20021;-74
2023/07/01 07:29:44;;;;;;;5.72;2.53;;;16.50;99.90;;;;;;5053172;28;20045;-73
2023/07/01 07:32:10;;;;;;;5.43;2.90;;;16.50;99.90;;;;;;5053211;28;20028;-73
2023/07/01 07:34:38;;;;;;;6.55;3.20;;;16.60;99.90;;;;;;5053101;28;20044;-73
2023/07/01 07:37:04;;;;;;;4.97;3.20;;;16.80;99.90;;;;;;5051895;28;20060;-74
2023/07/01 07:39:30;;;;;;;6.30;3.90;;;16.80;99.90;;;;;;5052841;28;20025;-73
2023/07/01 07:41:56;;;;;;;8.35;4.07;;;16.90;99.90;;;;;;5052977;28;20040;-73
2023/07/01 07:44:22;;;;;;;6.72;4.32;;;17.10;99.90;;;;;;5052606;28;20410;-77
2023/07/01 07:46:47;;;;;;;10.63;4.45;;;17.30;99.90;;;;;;5052572;28;20025;-75
2023/07/01 07:49:13;;;;;;;9.77;4.47;;;17.50;99.90;;;;;;5053054;28;20531;-75
2023/07/01 07:51:39;;;;;;;8.88;4.93;;;17.40;99.90;;;;;;5052380;28;20036;-75
2023/07/01 07:54:04;;;;;;;11.07;5.25;;;17.40;99.90;;;;;;5052679;28;20115;-74
2023/07/01 07:56:30;;;;;;;10.55;5.47;;;17.60;99.90;;;;;;5051850;28;20064;-74
2023/07/01 07:58:56;;;;;;;10.27;5.00;;;17.60;99.90;;;;;;5052544;28;20081;-72
2023/07/01 08:01:22;;;;;;;11.15;5.05;;;17.60;99.90;;;;;;5051541;28;20107;-76
2023/07/01 08:03:48;;;;;;;13.30;5.25;;;17.40;99.90;;;;;;5052078;28;20143;-73
2023/07/01 08:06:13;;;;;;;8.93;5.15;;;17.20;99.90;;;;;;5052359;28;20033;-73
2023/07/01 08:08:39;;;;;;;12.73;5.60;;;17.10;99.90;;;;;;5051433;28;20438;-74
2023/07/01 08:11:05;;;;;;;12.73;6.28;;;16.90;99.90;;;;;;5052279;28;20036;-73
2023/07/01 08:13:30;;;;;;;13.98;6.10;;;16.80;99.90;;;;;;5051655;28;20387;-74
2023/07/01 08:15:57;;;;;;;10.23;5.75;;;16.80;99.90;;;;;;5052779;28;20121;-74
2023/07/01 08:18:23;;;;;;;12.40;5.68;;;16.90;99.90;;;;;;5052064;28;20065;-77
2023/07/01 08:20:50;;;;;;;11.15;5.68;;;17.10;99.90;;;;;;5052000;28;20056;-74
2023/07/01 08:23:16;;;;;;;11.73;6.03;;;17.30;99.90;;;;;;5052335;28;20029;-73
2023/07/01 08:25:42;;;;;;;14.52;6.00;;;17.40;99.90;;;;;;5051643;28;20175;-75
2023/07/01 08:28:08;;;;;;;15.07;6.68;;;17.60;99.90;;;;;;5052004;28;20095;-75
2023/07/01 08:30:35;;;;;;;11.88;6.45;;;17.80;99.90;;;;;;5051672;28;20048;-75
2023/07/01 08:33:01;;;;;;;14.45;6.20;;;18.00;99.90;;;;;;5052148;28;20116;-75
2023/07/01 08:35:28;;;;;;;11.48;6.70;;;18.10;99.90;;;;;;5051318;28;20100;-76
2023/07/01 08:37:53;;;;;;;19.95;7.45;;;18.20;99.90;;;;;;5050799;28;20136;-74
2023/07/01 08:40:19;;;;;;;19.10;8.43;;;18.40;99.90;;;;;;5052230;28;20107;-75
2023/07/01 08:42:55;;;;;;;18.13;9.38;;;18.40;99.90;;;;;;5051391;28;20054;-74
2023/07/01 08:45:22;;;;;;;21.80;9.30;;;18.30;99.90;;;;;;5050818;28;20104;-74
2023/07/01 08:47:49;;;;;;;17.38;9.40;;;18.10;99.90;;;;;;5050950;28;20033;-75
2023/07/01 08:50:19;;;;;;;17.20;8.93;;;17.80;99.90;;;;;;5051928;28;20029;-74
2023/07/01 08:52:59;;;;;;;25.88;10.52;;;17.60;99.90;;;;;;5051634;28;20115;-75
2023/07/01 08:55:25;;;;;;;26.52;11.05;;;17.50;99.90;;;;;;5051602;28;20484;-76
2023/07/01 08:57:51;;;;;;;22.60;11.30;;;17.70;99.90;;;;;;5051275;28;20028;-75
2023/07/01 09:00:17;;;;;;;24.50;10.85;;;17.80;99.90;;;;;;5052305;28;20175;-74
2023/07/01 09:02:43;;;;;;;23.83;11.02;;;17.90;99.90;;;;;;5049840;28;20120;-75
2023/07/01 09:05:09;;;;;;;22.70;10.40;;;18.00;99.90;;;;;;5050283;28;20466;-74
2023/07/01 09:07:35;;;;;;;25.58;11.95;;;18.10;99.90;;;;;;5051339;28;20116;-76
2023/07/01 09:10:01;;;;;;;22.33;12.10;;;18.20;99.90;;;;;;5051150;28;20162;-75
2023/07/01 09:12:27;;;;;;;24.55;11.50;;;18.20;99.90;;;;;;5050633;28;20489;-76
2023/07/01 09:15:00;;;;;;;24.63;12.00;;;18.20;99.90;;;;;;5051097;28;20032;-75
2023/07/01 09:17:34;;;;;;;27.58;12.80;;;18.20;99.90;;;;;;5051510;28;20021;-76
2023/07/01 09:20:01;;;;;;;32.72;12.73;;;18.10;99.90;;;;;;5051661;28;20140;-74
2023/07/01 09:22:28;;;;;;;29.85;13.38;;;18.00;99.90;;;;;;5051154;28;20033;-76
2023/07/01 09:24:55;;;;;;;22.48;12.45;;;17.70;99.90;;;;;;5051559;28;20036;-75
2023/07/01 09:27:20;;;;;;;30.13;14.25;;;17.70;99.90;;;;;;5050860;28;20116;-74
2023/07/01 09:29:46;;;;;;;27.52;13.45;;;17.70;99.90;;;;;;5050603;28;20140;-75
2023/07/01 09:32:31;;;;;;;25.98;13.77;;;17.90;99.90;;;;;;5051344;28;20075;-75
2023/07/01 09:34:57;;;;;;;30.00;12.70;;;18.20;99.90;;;;;;5050986;28;20052;-75
2023/07/01 09:37:26;;;;;;;31.95;13.48;;;18.50;99.90;;;;;;5050970;28;20031;-75
2023/07/01 09:39:52;;;;;;;30.92;13.95;;;18.80;99.90;;;;;;5050835;28;20108;-73
2023/07/01 09:42:18;;;;;;;32.25;13.38;;;18.90;99.90;;;;;;5050230;28;20107;-74
2023/07/01 09:45:07;;;;;;;37.60;15.38;;;18.80;99.90;;;;;;5050211;28;20033;-74
2023/07/01 09:47:33;;;;;;;26.60;13.60;;;18.60;99.90;;;;;;5050115;28;20385;-75
2023/07/01 09:49:59;;;;;;;27.00;13.50;;;18.50;99.90;;;;;;5050450;28;20051;-74
2023/07/01 09:52:32;;;;;;;39.78;13.88;;;18.30;99.90;;;;;;5050332;28;20025;-74
2023/07/01 09:55:03;;;;;;;31.83;15.00;;;18.10;99.90;;;;;;5050261;28;20029;-74
2023/07/01 09:57:30;;;;;;;36.15;14.63;;;18.00;99.90;;;;;;5050427;28;20129;-76
2023/07/01 09:59:56;;;;;;;30.42;14.02;;;17.90;99.90;;;;;;5050450;28;20028;-74
2023/07/01 10:02:22;;;;;;;35.00;14.40;;;17.90;99.90;;;;;;5050057;28;20054;-74
2023/07/01 10:04:50;;;;;;;32.05;14.60;;;17.90;99.90;;;;;;5049946;28;20095;-75
2023/07/01 10:07:16;;;;;;;28.08;13.80;;;17.90;99.90;;;;;;5049840;28;20116;-74
2023/07/01 10:09:51;;;;;;;31.90;14.75;;;18.20;99.90;;;;;;5049855;28;20109;-74
2023/07/01 10:12:18;;;;;;;37.13;14.70;;;18.60;99.90;;;;;;5049995;28;20387;-74
2023/07/01 10:14:51;;;;;;;38.28;15.00;;;19.00;99.90;;;;;;5049440;28;20079;-75
2023/07/01 10:17:18;;;;;;;29.52;13.60;;;19.10;99.90;;;;;;5050326;28;20040;-74
2023/07/01 10:19:47;;;;;;;36.35;15.05;;;19.00;99.90;;;;;;5049957;28;20055;-75
2023/07/01 10:22:29;;;;;;;33.00;15.15;;;18.90;99.90;;;;;;5033445;28;20110;-74
2023/07/01 10:25:06;;;;;;;36.88;14.50;;;19.10;99.90;;;;;;5050873;28;20033;-74
2023/07/01 10:27:44;;;;;;;32.95;14.45;;;19.40;99.90;;;;;;5054762;28;20029;-75
2023/07/01 10:30:13;;;;;;;37.80;14.23;;;19.20;99.90;;;;;;5054219;28;20406;-74
2023/07/01 10:32:40;;;;;;;33.55;14.98;;;18.90;99.90;;;;;;5054581;28;20052;-75
2023/07/01 10:35:07;;;;;;;32.55;14.27;;;18.70;99.90;;;;;;5054888;28;20111;-75
2023/07/01 10:37:34;;;;;;;34.92;14.57;;;18.60;99.90;;;;;;5052813;28;20039;-76
2023/07/01 10:40:07;;;;;;;33.53;14.88;;;18.40;99.90;;;;;;5054705;28;20060;-74
2023/07/01 10:42:36;;;;;;;30.65;13.38;;;18.30;99.90;;;;;;5052845;28;20040;-75
2023/07/01 10:45:11;;;;;;;32.92;14.40;;;18.10;99.90;;;;;;5054504;28;20433;-74
2023/07/01 10:47:43;;;;;;;36.38;14.27;;;18.30;99.90;;;;;;5053391;28;20021;-75
2023/07/01 10:50:10;;;;;;;33.03;14.90;;;18.50;99.90;;;;;;5054075;28;20347;-74
2023/07/01 10:52:58;;;;;;;32.75;14.20;;;18.70;99.90;;;;;;5053026;28;20029;-75
2023/07/01 10:55:43;;;;;;;34.10;15.43;;;18.80;1.00;;;;;;5053512;28;20416;-74
2023/07/01 10:58:26;;;;;;;37.30;14.82;;;18.70;1.00;;;;;;5053653;28;20048;-74
2023/07/01 11:00:58;;;;;;;35.00;14.80;;;18.50;1.00;;;;;;5053436;28;20044;-74
2023/07/01 11:03:33;;;;;;;31.90;14.68;;;18.40;1.00;;;;;;5053841;28;20302;-74
2023/07/01 11:06:10;;;;;;;34.10;14.35;;;18.60;1.00;;;;;;5053696;28;20074;-74
2023/07/01 11:08:53;;;;;;;26.35;13.18;;;18.90;1.00;;;;;;5053194;28;20060;-75
2023/07/01 11:11:27;;;;;;;29.80;12.02;;;19.00;1.00;;;;;;5053521;28;20456;-74
2023/07/01 11:14:05;;;;;;;34.40;14.27;;;18.90;1.00;;;;;;5052891;28;20035;-75
2023/07/01 11:16:32;;;;;;;33.35;13.82;;;18.70;1.00;;;;;;5053530;28;20029;-74
2023/07/01 11:19:04;;;;;;;29.73;14.23;;;18.90;1.00;;;;;;5053082;28;20105;-75
2023/07/01 11:21:31;;;;;;;31.80;14.98;;;18.90;1.00;;;;;;5053455;28;20047;-75
2023/07/01 11:24:04;;;;;;;26.17;12.77;;;19.00;1.00;;;;;;5052769;28;20095;-74
2023/07/01 11:26:30;;;;;;;29.92;14.02;;;19.20;1.00;;;;;;5053350;28;20111;-74
2023/07/01 11:28:56;;;;;;;34.47;14.60;;;19.50;1.00;;;;;;5052490;28;20041;-74
2023/07/01 11:31:27;;;;;;;27.80;13.52;;;19.70;1.00;;;;;;5053278;28;20036;-75
2023/07/01 11:33:54;;;;;;;28.75;13.32;;;19.60;99.90;;;;;;5052627;28;20029;-74
2023/07/01 11:36:37;;;;;;;31.25;13.50;;;19.70;99.90;;;;;;5052829;28;20028;-74
2023/07/01 11:39:14;;;;;;;29.67;13.63;;;19.80;99.90;;;;;;5052843;28;20466;-74
2023/07/01 11:41:42;;;;;;;27.00;12.77;;;19.90;99.90;;;;;;5051238;28;20044;-75
2023/07/01 11:44:10;;;;;;;28.13;13.23;;;19.90;1.00;;;;;;5052936;28;20055;-74
2023/07/01 11:46:38;;;;;;;32.72;13.25;;;19.90;1.00;;;;;;5053267;28;20033;-76
2023/07/01 11:49:11;;;;;;;24.00;12.25;;;19.70;99.90;;;;;;5052670;28;20316;-73
2023/07/01 11:51:38;;;;;;;33.95;13.85;;;19.60;1.00;;;;;;5052309;28;20438;-76
2023/07/01 11:54:04;;;;;;;27.63;13.88;;;19.40;99.90;;;;;;5052845;28;20104;-74
2023/07/01 11:56:29;;;;;;;31.50;12.57;;;19.40;1.00;;;;;;5052970;28;20120;-75
2023/07/01 11:58:55;;;;;;;25.58;13.07;;;19.40;1.00;;;;;;5051686;28;20032;-74
2023/07/01 12:01:25;;;;;;;28.08;12.80;;;19.20;1.00;;;;;;5052523;28;20044;-75
2023/07/01 12:03:55;;;;;;;30.10;12.68;;;19.10;1.00;;;;;;5052487;28;20040;-75
2023/07/01 12:06:22;;;;;;;28.48;12.45;;;19.10;1.00;;;;;;5052721;28;20029;-75
2023/07/01 12:08:57;;;;;;;27.67;13.38;;;18.90;99.90;;;;;;5051846;28;20159;-74
2023/07/01 12:11:24;;;;;;;27.42;12.25;;;18.80;99.90;;;;;;5052069;28;20060;-74
2023/07/01 12:13:51;;;;;;;26.63;12.68;;;18.70;1.00;;;;;;5050116;28;20452;-74
2023/07/01 12:16:18;;;;;;;25.83;11.35;;;18.80;99.90;;;;;;5051964;28;20439;-73
2023/07/01 12:18:44;;;;;;;26.55;12.48;;;19.00;70.30;;;;;;5051388;28;20025;-74
2023/07/01 12:21:10;;;;;;;26.27;12.18;;;19.40;1.00;;;;;;5050582;28;20393;-74
2023/07/01 12:23:43;;;;;;;31.00;11.75;;;19.70;48.50;;;;;;5052154;28;20032;-74
2023/07/01 12:26:13;;;;;;;25.77;11.93;;;20.00;99.90;;;;;;5050739;28;20036;-75
2023/07/01 12:28:39;;;;;;;28.00;12.00;;;19.90;99.90;;;;;;5052799;28;20076;-76
2023/07/01 12:31:06;;;;;;;27.10;10.70;;;19.80;1.00;;;;;;5052940;28;20457;-75
2023/07/01 12:33:35;;;;;;;22.08;10.63;;;19.70;1.00;;;;;;5052998;28;20031;-74
2023/07/01 12:36:02;;;;;;;26.00;11.00;;;19.70;1.00;;;;;;5052477;28;20418;-74
2023/07/01 12:38:29;;;;;;;20.90;9.80;;;19.60;99.90;;;;;;5053208;28;20086;-74
2023/07/01 12:40:56;;;;;;;25.08;11.13;;;19.50;1.00;;;;;;5052501;28;20090;-75
2023/07/01 12:43:26;;;;;;;28.85;10.57;;;19.60;1.00;;;;;;5051824;28;20401;-74